Terminal Aerodrome Forecast
Issued by NWS

Home | Current Version | Previous Version | Text Only | Print | Product List | Glossary On
Versions: 1 2 3 4 5 6 7 8 9 10 11 12
000
FTUS45 KVEF 291120
TAFVGT
TAF
KVGT 291120Z 2912/3012 33004KT P6SM FEW250
     FM291500 VRB05KT P6SM FEW150
     FM291900 13007KT P6SM SCT130 SCT180
     FM300400 34005KT P6SM FEW130 SCT180=

USA.gov is the U.S. government's official web portal to all federal, state and local government web resources and services.